sensor_id;sensor_type;location;lat;lon;timestamp;temperature;humidity
63445;DHT22;49573;47.682;9.170;2023-02-01T00:01:49;4.30;73.40
63445;DHT22;49573;47.682;9.170;2023-02-01T00:04:35;4.20;73.40
63445;DHT22;49573;47.682;9.170;2023-02-01T00:07:21;4.20;73.40
63445;DHT22;49573;47.682;9.170;2023-02-01T00:10:10;4.30;73.50
63445;DHT22;49573;47.682;9.170;2023-02-01T00:12:56;4.30;73.40
63445;DHT22;49573;47.682;9.170;2023-02-01T00:15:42;4.30;73.10
63445;DHT22;49573;47.682;9.170;2023-02-01T00:18:28;4.30;73.10
63445;DHT22;49573;47.682;9.170;2023-02-01T00:21:16;4.20;73.10
63445;DHT22;49573;47.682;9.170;2023-02-01T00:24:03;4.30;73.00
63445;DHT22;49573;47.682;9.170;2023-02-01T00:26:50;4.20;73.00
63445;DHT22;49573;47.682;9.170;2023-02-01T00:29:36;4.20;73.10
63445;DHT22;49573;47.682;9.170;2023-02-01T00:32:22;4.20;72.90
63445;DHT22;49573;47.682;9.170;2023-02-01T00:35:09;4.20;72.90
63445;DHT22;49573;47.682;9.170;2023-02-01T00:37:55;4.20;72.80
63445;DHT22;49573;47.682;9.170;2023-02-01T00:40:44;4.20;72.80
63445;DHT22;49573;47.682;9.170;2023-02-01T00:43:32;4.20;72.70
63445;DHT22;49573;47.682;9.170;2023-02-01T00:46:19;4.20;72.70
63445;DHT22;49573;47.682;9.170;2023-02-01T00:49:05;4.20;72.70
63445;DHT22;49573;47.682;9.170;2023-02-01T00:51:53;4.20;72.60
63445;DHT22;49573;47.682;9.170;2023-02-01T00:54:39;4.20;72.70
63445;DHT22;49573;47.682;9.170;2023-02-01T00:57:25;4.20;72.70
63445;DHT22;49573;47.682;9.170;2023-02-01T01:00:13;4.20;72.50
63445;DHT22;49573;47.682;9.170;2023-02-01T01:02:59;4.20;72.50
63445;DHT22;49573;47.682;9.170;2023-02-01T01:05:46;4.20;72.40
63445;DHT22;49573;47.682;9.170;2023-02-01T01:08:32;4.20;72.50
63445;DHT22;49573;47.682;9.170;2023-02-01T01:11:20;4.20;72.40
63445;DHT22;49573;47.682;9.170;2023-02-01T01:14:08;4.20;72.30
63445;DHT22;49573;47.682;9.170;2023-02-01T01:16:55;4.10;72.30
63445;DHT22;49573;47.682;9.170;2023-02-01T01:19:41;4.20;72.00
63445;DHT22;49573;47.682;9.170;2023-02-01T01:22:27;4.20;72.20
63445;DHT22;49573;47.682;9.170;2023-02-01T01:25:13;4.20;72.40
63445;DHT22;49573;47.682;9.170;2023-02-01T01:27:59;4.20;72.50
63445;DHT22;49573;47.682;9.170;2023-02-01T01:30:46;4.20;72.50
63445;DHT22;49573;47.682;9.170;2023-02-01T01:33:33;4.20;72.50
63445;DHT22;49573;47.682;9.170;2023-02-01T01:36:20;4.20;72.50
63445;DHT22;49573;47.682;9.170;2023-02-01T01:39:06;4.20;72.40
63445;DHT22;49573;47.682;9.170;2023-02-01T01:41:53;4.20;72.40
63445;DHT22;49573;47.682;9.170;2023-02-01T01:44:58;4.20;72.30
63445;DHT22;49573;47.682;9.170;2023-02-01T01:47:48;4.30;72.20
63445;DHT22;49573;47.682;9.170;2023-02-01T01:50:40;4.20;72.00
63445;DHT22;49573;47.682;9.170;2023-02-01T01:53:31;4.30;72.00
63445;DHT22;49573;47.682;9.170;2023-02-01T01:56:18;4.30;72.00
63445;DHT22;49573;47.682;9.170;2023-02-01T01:59:06;4.30;72.20
63445;DHT22;49573;47.682;9.170;2023-02-01T02:01:53;4.30;72.10
63445;DHT22;49573;47.682;9.170;2023-02-01T02:04:40;4.30;72.00
63445;DHT22;49573;47.682;9.170;2023-02-01T02:07:30;4.20;72.10
63445;DHT22;49573;47.682;9.170;2023-02-01T02:10:18;4.30;72.20
63445;DHT22;49573;47.682;9.170;2023-02-01T02:13:04;4.30;72.20
63445;DHT22;49573;47.682;9.170;2023-02-01T02:19:16;4.20;72.20
63445;DHT22;49573;47.682;9.170;2023-02-01T02:24:58;4.20;72.20
63445;DHT22;49573;47.682;9.170;2023-02-01T02:27:56;4.20;72.20
63445;DHT22;49573;47.682;9.170;2023-02-01T02:31:08;4.20;72.00
63445;DHT22;49573;47.682;9.170;2023-02-01T02:34:05;4.20;72.30
63445;DHT22;49573;47.682;9.170;2023-02-01T02:37:04;4.20;72.30
63445;DHT22;49573;47.682;9.170;2023-02-01T02:39:56;4.20;72.40
63445;DHT22;49573;47.682;9.170;2023-02-01T02:42:52;4.20;72.30
63445;DHT22;49573;47.682;9.170;2023-02-01T02:46:03;4.20;72.20
63445;DHT22;49573;47.682;9.170;2023-02-01T02:49:14;4.20;72.20
63445;DHT22;49573;47.682;9.170;2023-02-01T02:52:04;4.20;72.30
63445;DHT22;49573;47.682;9.170;2023-02-01T02:55:10;4.10;72.20
63445;DHT22;49573;47.682;9.170;2023-02-01T02:57:57;4.10;72.30
63445;DHT22;49573;47.682;9.170;2023-02-01T03:01:03;4.10;72.30
63445;DHT22;49573;47.682;9.170;2023-02-01T03:04:07;4.00;72.30
63445;DHT22;49573;47.682;9.170;2023-02-01T03:10:24;4.00;72.40
63445;DHT22;49573;47.682;9.170;2023-02-01T03:13:15;3.90;72.40
63445;DHT22;49573;47.682;9.170;2023-02-01T03:16:08;3.90;72.40
63445;DHT22;49573;47.682;9.170;2023-02-01T03:19:02;3.80;72.30
63445;DHT22;49573;47.682;9.170;2023-02-01T03:21:55;3.90;72.30
63445;DHT22;49573;47.682;9.170;2023-02-01T03:24:45;3.80;72.40
63445;DHT22;49573;47.682;9.170;2023-02-01T03:27:36;3.80;72.50
63445;DHT22;49573;47.682;9.170;2023-02-01T03:30:26;3.80;72.60
63445;DHT22;49573;47.682;9.170;2023-02-01T03:33:15;3.80;72.60
63445;DHT22;49573;47.682;9.170;2023-02-01T03:36:15;3.80;72.80
63445;DHT22;49573;47.682;9.170;2023-02-01T03:39:04;3.70;72.80
63445;DHT22;49573;47.682;9.170;2023-02-01T03:41:55;3.70;72.80
63445;DHT22;49573;47.682;9.170;2023-02-01T03:44:48;3.70;72.80
63445;DHT22;49573;47.682;9.170;2023-02-01T03:47:38;3.70;73.00
63445;DHT22;49573;47.682;9.170;2023-02-01T03:50:26;3.60;73.20
63445;DHT22;49573;47.682;9.170;2023-02-01T03:53:16;3.60;73.20
63445;DHT22;49573;47.682;9.170;2023-02-01T03:56:03;3.60;73.40
63445;DHT22;49573;47.682;9.170;2023-02-01T03:58:50;3.50;73.60
63445;DHT22;49573;47.682;9.170;2023-02-01T04:01:45;3.50;73.70
63445;DHT22;49573;47.682;9.170;2023-02-01T04:04:32;3.50;73.80
63445;DHT22;49573;47.682;9.170;2023-02-01T04:07:18;3.50;73.70
63445;DHT22;49573;47.682;9.170;2023-02-01T04:10:05;3.50;73.90
63445;DHT22;49573;47.682;9.170;2023-02-01T04:12:51;3.50;73.90
63445;DHT22;49573;47.682;9.170;2023-02-01T04:15:38;3.50;73.90
63445;DHT22;49573;47.682;9.170;2023-02-01T04:18:25;3.50;73.90
63445;DHT22;49573;47.682;9.170;2023-02-01T04:21:11;3.50;74.00
63445;DHT22;49573;47.682;9.170;2023-02-01T04:23:57;3.50;73.90
63445;DHT22;49573;47.682;9.170;2023-02-01T04:26:43;3.60;74.00
63445;DHT22;49573;47.682;9.170;2023-02-01T04:29:29;3.50;74.00
63445;DHT22;49573;47.682;9.170;2023-02-01T04:32:15;3.50;74.20
63445;DHT22;49573;47.682;9.170;2023-02-01T04:35:03;3.50;74.20
63445;DHT22;49573;47.682;9.170;2023-02-01T04:37:49;3.60;74.30
63445;DHT22;49573;47.682;9.170;2023-02-01T04:40:35;3.50;74.50
63445;DHT22;49573;47.682;9.170;2023-02-01T04:43:23;3.50;74.80
63445;DHT22;49573;47.682;9.170;2023-02-01T04:46:09;3.50;74.80
63445;DHT22;49573;47.682;9.170;2023-02-01T04:48:55;3.50;75.00
63445;DHT22;49573;47.682;9.170;2023-02-01T04:51:43;3.50;75.00
63445;DHT22;49573;47.682;9.170;2023-02-01T04:54:29;3.50;75.00
63445;DHT22;49573;47.682;9.170;2023-02-01T04:57:15;3.50;75.00
63445;DHT22;49573;47.682;9.170;2023-02-01T05:00:01;3.50;74.90
63445;DHT22;49573;47.682;9.170;2023-02-01T05:02:47;3.50;75.00
63445;DHT22;49573;47.682;9.170;2023-02-01T05:05:33;3.50;74.90
63445;DHT22;49573;47.682;9.170;2023-02-01T05:08:20;3.50;75.10
63445;DHT22;49573;47.682;9.170;2023-02-01T05:11:08;3.50;75.00
63445;DHT22;49573;47.682;9.170;2023-02-01T05:14:14;3.50;75.10
63445;DHT22;49573;47.682;9.170;2023-02-01T05:17:00;3.50;75.10
63445;DHT22;49573;47.682;9.170;2023-02-01T05:19:46;3.50;75.30
63445;DHT22;49573;47.682;9.170;2023-02-01T05:22:32;3.50;75.30
63445;DHT22;49573;47.682;9.170;2023-02-01T05:25:19;3.50;75.30
63445;DHT22;49573;47.682;9.170;2023-02-01T05:28:05;3.40;75.60
63445;DHT22;49573;47.682;9.170;2023-02-01T05:30:52;3.40;75.50
63445;DHT22;49573;47.682;9.170;2023-02-01T05:33:38;3.40;75.70
63445;DHT22;49573;47.682;9.170;2023-02-01T05:36:27;3.50;75.60
63445;DHT22;49573;47.682;9.170;2023-02-01T05:39:14;3.40;75.50
63445;DHT22;49573;47.682;9.170;2023-02-01T05:42:02;3.40;75.60
63445;DHT22;49573;47.682;9.170;2023-02-01T05:44:48;3.40;75.60
63445;DHT22;49573;47.682;9.170;2023-02-01T05:47:35;3.50;75.60
63445;DHT22;49573;47.682;9.170;2023-02-01T05:50:22;3.50;75.70
63445;DHT22;49573;47.682;9.170;2023-02-01T05:53:08;3.50;75.50
63445;DHT22;49573;47.682;9.170;2023-02-01T05:55:55;3.50;75.50
63445;DHT22;49573;47.682;9.170;2023-02-01T05:58:42;3.50;75.40
63445;DHT22;49573;47.682;9.170;2023-02-01T06:01:29;3.50;75.30
63445;DHT22;49573;47.682;9.170;2023-02-01T06:04:15;3.40;75.40
63445;DHT22;49573;47.682;9.170;2023-02-01T06:07:01;3.40;75.40
63445;DHT22;49573;47.682;9.170;2023-02-01T06:09:47;3.40;75.40
63445;DHT22;49573;47.682;9.170;2023-02-01T06:12:33;3.30;75.60
63445;DHT22;49573;47.682;9.170;2023-02-01T06:15:20;3.40;75.70
63445;DHT22;49573;47.682;9.170;2023-02-01T06:18:06;3.40;75.80
63445;DHT22;49573;47.682;9.170;2023-02-01T06:20:53;3.40;75.70
63445;DHT22;49573;47.682;9.170;2023-02-01T06:23:39;3.40;75.50
63445;DHT22;49573;47.682;9.170;2023-02-01T06:26:25;3.40;75.60
63445;DHT22;49573;47.682;9.170;2023-02-01T06:29:14;3.40;75.60
63445;DHT22;49573;47.682;9.170;2023-02-01T06:32:01;3.40;75.60
63445;DHT22;49573;47.682;9.170;2023-02-01T06:34:48;3.40;75.70
63445;DHT22;49573;47.682;9.170;2023-02-01T06:37:36;3.40;76.00
63445;DHT22;49573;47.682;9.170;2023-02-01T06:40:22;3.40;75.90
63445;DHT22;49573;47.682;9.170;2023-02-01T06:43:08;3.50;75.90
63445;DHT22;49573;47.682;9.170;2023-02-01T06:45:59;3.50;75.70
63445;DHT22;49573;47.682;9.170;2023-02-01T06:48:47;3.50;75.80
63445;DHT22;49573;47.682;9.170;2023-02-01T06:51:35;3.40;75.60
63445;DHT22;49573;47.682;9.170;2023-02-01T06:54:21;3.50;75.70
63445;DHT22;49573;47.682;9.170;2023-02-01T06:57:07;3.50;75.40
63445;DHT22;49573;47.682;9.170;2023-02-01T06:59:53;3.50;75.50
63445;DHT22;49573;47.682;9.170;2023-02-01T07:02:39;3.50;75.40
63445;DHT22;49573;47.682;9.170;2023-02-01T07:05:26;3.50;75.40
63445;DHT22;49573;47.682;9.170;2023-02-01T07:08:12;3.60;75.30
63445;DHT22;49573;47.682;9.170;2023-02-01T07:11:01;3.50;75.40
63445;DHT22;49573;47.682;9.170;2023-02-01T07:13:48;3.50;75.60
63445;DHT22;49573;47.682;9.170;2023-02-01T07:16:34;3.60;75.80
63445;DHT22;49573;47.682;9.170;2023-02-01T07:19:20;3.50;75.60
63445;DHT22;49573;47.682;9.170;2023-02-01T07:22:07;3.50;76.00
63445;DHT22;49573;47.682;9.170;2023-02-01T07:24:53;3.50;76.20
63445;DHT22;49573;47.682;9.170;2023-02-01T07:27:39;3.50;76.10
63445;DHT22;49573;47.682;9.170;2023-02-01T07:30:25;3.50;76.20
63445;DHT22;49573;47.682;9.170;2023-02-01T07:33:12;3.40;76.50
63445;DHT22;49573;47.682;9.170;2023-02-01T07:36:00;3.50;76.40
63445;DHT22;49573;47.682;9.170;2023-02-01T07:38:49;3.50;76.10
63445;DHT22;49573;47.682;9.170;2023-02-01T07:41:36;3.50;76.30
63445;DHT22;49573;47.682;9.170;2023-02-01T07:44:22;3.40;76.30
63445;DHT22;49573;47.682;9.170;2023-02-01T07:47:08;3.40;76.30
63445;DHT22;49573;47.682;9.170;2023-02-01T07:49:54;3.40;76.50
63445;DHT22;49573;47.682;9.170;2023-02-01T07:52:41;3.40;76.50
63445;DHT22;49573;47.682;9.170;2023-02-01T07:55:29;3.40;76.70
63445;DHT22;49573;47.682;9.170;2023-02-01T07:58:15;3.40;76.70
63445;DHT22;49573;47.682;9.170;2023-02-01T08:01:01;3.50;76.70
63445;DHT22;49573;47.682;9.170;2023-02-01T08:04:05;3.40;77.00
63445;DHT22;49573;47.682;9.170;2023-02-01T08:06:51;3.40;77.30
63445;DHT22;49573;47.682;9.170;2023-02-01T08:09:37;3.40;77.50
63445;DHT22;49573;47.682;9.170;2023-02-01T08:12:25;3.40;77.60
63445;DHT22;49573;47.682;9.170;2023-02-01T08:15:11;3.30;77.80
63445;DHT22;49573;47.682;9.170;2023-02-01T08:17:57;3.50;77.70
63445;DHT22;49573;47.682;9.170;2023-02-01T08:20:44;3.40;77.90
63445;DHT22;49573;47.682;9.170;2023-02-01T08:23:31;3.50;78.00
63445;DHT22;49573;47.682;9.170;2023-02-01T08:26:19;3.50;77.80
63445;DHT22;49573;47.682;9.170;2023-02-01T08:29:09;3.50;78.10
63445;DHT22;49573;47.682;9.170;2023-02-01T08:31:57;3.50;78.50
63445;DHT22;49573;47.682;9.170;2023-02-01T08:34:43;3.40;78.90
63445;DHT22;49573;47.682;9.170;2023-02-01T08:37:29;3.50;78.50
63445;DHT22;49573;47.682;9.170;2023-02-01T08:40:15;3.50;78.80
63445;DHT22;49573;47.682;9.170;2023-02-01T08:43:02;3.60;78.80
63445;DHT22;49573;47.682;9.170;2023-02-01T08:45:49;3.50;78.80
63445;DHT22;49573;47.682;9.170;2023-02-01T08:48:36;3.60;78.90
63445;DHT22;49573;47.682;9.170;2023-02-01T08:51:23;3.60;78.80
63445;DHT22;49573;47.682;9.170;2023-02-01T08:54:09;3.70;78.80
63445;DHT22;49573;47.682;9.170;2023-02-01T08:56:55;3.70;78.90
63445;DHT22;49573;47.682;9.170;2023-02-01T08:59:42;3.70;78.80
63445;DHT22;49573;47.682;9.170;2023-02-01T09:02:31;3.70;78.70
63445;DHT22;49573;47.682;9.170;2023-02-01T09:05:17;3.70;78.70
63445;DHT22;49573;47.682;9.170;2023-02-01T09:08:07;3.70;78.70
63445;DHT22;49573;47.682;9.170;2023-02-01T09:10:57;3.70;78.70
63445;DHT22;49573;47.682;9.170;2023-02-01T09:13:44;3.70;78.80
63445;DHT22;49573;47.682;9.170;2023-02-01T09:16:30;3.70;78.90
63445;DHT22;49573;47.682;9.170;2023-02-01T09:19:17;3.70;79.00
63445;DHT22;49573;47.682;9.170;2023-02-01T09:22:03;3.70;78.90
63445;DHT22;49573;47.682;9.170;2023-02-01T09:24:49;3.70;79.00
63445;DHT22;49573;47.682;9.170;2023-02-01T09:27:35;3.80;79.00
63445;DHT22;49573;47.682;9.170;2023-02-01T09:30:21;3.80;78.80
63445;DHT22;49573;47.682;9.170;2023-02-01T09:33:07;3.80;78.90
63445;DHT22;49573;47.682;9.170;2023-02-01T09:35:57;3.90;78.90
63445;DHT22;49573;47.682;9.170;2023-02-01T09:38:43;3.90;78.80
63445;DHT22;49573;47.682;9.170;2023-02-01T09:41:41;3.90;78.70
63445;DHT22;49573;47.682;9.170;2023-02-01T09:44:39;4.10;78.50
63445;DHT22;49573;47.682;9.170;2023-02-01T09:47:28;4.10;78.40
63445;DHT22;49573;47.682;9.170;2023-02-01T09:50:17;4.10;78.20
63445;DHT22;49573;47.682;9.170;2023-02-01T09:53:15;4.10;77.90
63445;DHT22;49573;47.682;9.170;2023-02-01T09:56:05;4.20;77.80
63445;DHT22;49573;47.682;9.170;2023-02-01T09:58:55;4.20;77.70
63445;DHT22;49573;47.682;9.170;2023-02-01T10:01:44;4.20;77.30
63445;DHT22;49573;47.682;9.170;2023-02-01T10:04:31;4.30;77.20
63445;DHT22;49573;47.682;9.170;2023-02-01T10:07:27;4.20;77.00
63445;DHT22;49573;47.682;9.170;2023-02-01T10:10:23;4.30;76.80
63445;DHT22;49573;47.682;9.170;2023-02-01T10:13:33;4.30;76.60
63445;DHT22;49573;47.682;9.170;2023-02-01T10:16:33;4.30;76.30
63445;DHT22;49573;47.682;9.170;2023-02-01T10:19:32;4.40;76.30
63445;DHT22;49573;47.682;9.170;2023-02-01T10:22:33;4.50;76.20
63445;DHT22;49573;47.682;9.170;2023-02-01T10:25:26;4.50;76.10
63445;DHT22;49573;47.682;9.170;2023-02-01T10:28:16;4.60;75.50
63445;DHT22;49573;47.682;9.170;2023-02-01T10:31:03;4.60;75.10
63445;DHT22;49573;47.682;9.170;2023-02-01T10:33:54;4.70;75.00
63445;DHT22;49573;47.682;9.170;2023-02-01T10:36:47;4.70;74.80
63445;DHT22;49573;47.682;9.170;2023-02-01T10:39:36;4.80;74.50
63445;DHT22;49573;47.682;9.170;2023-02-01T10:42:26;4.80;74.00
63445;DHT22;49573;47.682;9.170;2023-02-01T10:45:16;5.00;73.50
63445;DHT22;49573;47.682;9.170;2023-02-01T10:48:03;5.20;73.60
63445;DHT22;49573;47.682;9.170;2023-02-01T10:50:53;5.50;72.40
63445;DHT22;49573;47.682;9.170;2023-02-01T10:53:44;5.80;72.10
63445;DHT22;49573;47.682;9.170;2023-02-01T10:56:37;6.30;71.30
63445;DHT22;49573;47.682;9.170;2023-02-01T10:59:25;7.00;68.90
63445;DHT22;49573;47.682;9.170;2023-02-01T11:02:22;7.00;66.90
63445;DHT22;49573;47.682;9.170;2023-02-01T11:05:15;6.80;67.90
63445;DHT22;49573;47.682;9.170;2023-02-01T11:08:05;7.20;67.10
63445;DHT22;49573;47.682;9.170;2023-02-01T11:11:01;7.40;66.70
63445;DHT22;49573;47.682;9.170;2023-02-01T11:13:53;7.80;65.60
63445;DHT22;49573;47.682;9.170;2023-02-01T11:16:47;7.50;66.00
63445;DHT22;49573;47.682;9.170;2023-02-01T11:19:33;7.30;67.00
63445;DHT22;49573;47.682;9.170;2023-02-01T11:22:20;7.20;66.60
63445;DHT22;49573;47.682;9.170;2023-02-01T11:25:09;7.10;66.80
63445;DHT22;49573;47.682;9.170;2023-02-01T11:27:56;8.00;64.20
63445;DHT22;49573;47.682;9.170;2023-02-01T11:30:45;7.70;65.10
63445;DHT22;49573;47.682;9.170;2023-02-01T11:33:36;8.00;63.80
63445;DHT22;49573;47.682;9.170;2023-02-01T11:36:26;8.40;63.90
63445;DHT22;49573;47.682;9.170;2023-02-01T11:39:23;8.90;62.70
63445;DHT22;49573;47.682;9.170;2023-02-01T11:42:13;8.50;63.00
63445;DHT22;49573;47.682;9.170;2023-02-01T11:45:19;9.00;63.00
63445;DHT22;49573;47.682;9.170;2023-02-01T11:48:09;8.50;62.10
63445;DHT22;49573;47.682;9.170;2023-02-01T11:51:18;8.80;61.80
63445;DHT22;49573;47.682;9.170;2023-02-01T11:54:27;8.70;62.30
63445;DHT22;49573;47.682;9.170;2023-02-01T11:57:29;8.20;62.90
63445;DHT22;49573;47.682;9.170;2023-02-01T12:00:32;7.80;64.40
63445;DHT22;49573;47.682;9.170;2023-02-01T12:03:48;7.80;63.90
63445;DHT22;49573;47.682;9.170;2023-02-01T12:06:48;7.90;64.10
63445;DHT22;49573;47.682;9.170;2023-02-01T12:09:52;7.50;64.30
63445;DHT22;49573;47.682;9.170;2023-02-01T12:12:47;7.40;65.20
63445;DHT22;49573;47.682;9.170;2023-02-01T12:15:45;7.30;65.40
63445;DHT22;49573;47.682;9.170;2023-02-01T12:18:49;6.90;65.80
63445;DHT22;49573;47.682;9.170;2023-02-01T12:21:52;6.80;66.90
63445;DHT22;49573;47.682;9.170;2023-02-01T12:24:53;6.90;67.10
63445;DHT22;49573;47.682;9.170;2023-02-01T12:28:02;6.80;67.60
63445;DHT22;49573;47.682;9.170;2023-02-01T12:31:21;6.70;67.50
63445;DHT22;49573;47.682;9.170;2023-02-01T12:34:29;6.50;67.80
63445;DHT22;49573;47.682;9.170;2023-02-01T12:37:30;6.50;67.90
63445;DHT22;49573;47.682;9.170;2023-02-01T12:40:26;6.60;67.80
63445;DHT22;49573;47.682;9.170;2023-02-01T12:43:17;6.40;67.30
63445;DHT22;49573;47.682;9.170;2023-02-01T12:46:11;6.40;67.50
63445;DHT22;49573;47.682;9.170;2023-02-01T12:49:01;6.40;68.40
63445;DHT22;49573;47.682;9.170;2023-02-01T12:51:50;6.40;68.60
63445;DHT22;49573;47.682;9.170;2023-02-01T12:54:43;6.50;68.40
63445;DHT22;49573;47.682;9.170;2023-02-01T12:57:35;6.40;68.50
63445;DHT22;49573;47.682;9.170;2023-02-01T13:00:27;6.20;68.80
63445;DHT22;49573;47.682;9.170;2023-02-01T13:03:26;6.20;69.40
63445;DHT22;49573;47.682;9.170;2023-02-01T13:06:16;6.30;69.90
63445;DHT22;49573;47.682;9.170;2023-02-01T13:09:09;6.20;70.40
63445;DHT22;49573;47.682;9.170;2023-02-01T13:12:09;6.20;70.30
63445;DHT22;49573;47.682;9.170;2023-02-01T13:15:02;6.10;71.00
63445;DHT22;49573;47.682;9.170;2023-02-01T13:17:51;6.10;71.30
63445;DHT22;49573;47.682;9.170;2023-02-01T13:20:45;6.00;71.40
63445;DHT22;49573;47.682;9.170;2023-02-01T13:23:35;6.00;71.20
63445;DHT22;49573;47.682;9.170;2023-02-01T13:26:22;6.00;70.90
63445;DHT22;49573;47.682;9.170;2023-02-01T13:29:10;6.00;70.20
63445;DHT22;49573;47.682;9.170;2023-02-01T13:32:13;5.80;69.20
63445;DHT22;49573;47.682;9.170;2023-02-01T13:35:22;5.90;69.10
63445;DHT22;49573;47.682;9.170;2023-02-01T13:38:40;5.90;68.50
63445;DHT22;49573;47.682;9.170;2023-02-01T13:41:31;5.90;68.40
63445;DHT22;49573;47.682;9.170;2023-02-01T13:44:26;5.90;66.90
63445;DHT22;49573;47.682;9.170;2023-02-01T13:47:26;5.90;67.00
63445;DHT22;49573;47.682;9.170;2023-02-01T13:50:20;5.90;65.70
63445;DHT22;49573;47.682;9.170;2023-02-01T13:53:16;6.00;66.10
63445;DHT22;49573;47.682;9.170;2023-02-01T13:56:05;6.00;65.40
63445;DHT22;49573;47.682;9.170;2023-02-01T13:58:53;5.90;65.60
63445;DHT22;49573;47.682;9.170;2023-02-01T14:01:40;5.90;65.90
63445;DHT22;49573;47.682;9.170;2023-02-01T14:04:47;5.90;66.10
63445;DHT22;49573;47.682;9.170;2023-02-01T14:07:33;5.80;66.60
63445;DHT22;49573;47.682;9.170;2023-02-01T14:10:46;5.80;66.20
63445;DHT22;49573;47.682;9.170;2023-02-01T14:13:40;5.80;66.40
63445;DHT22;49573;47.682;9.170;2023-02-01T14:16:27;5.70;66.20
63445;DHT22;49573;47.682;9.170;2023-02-01T14:19:21;5.70;66.10
63445;DHT22;49573;47.682;9.170;2023-02-01T14:22:32;5.80;66.30
63445;DHT22;49573;47.682;9.170;2023-02-01T14:25:19;5.80;66.30
63445;DHT22;49573;47.682;9.170;2023-02-01T14:28:11;5.80;66.70
63445;DHT22;49573;47.682;9.170;2023-02-01T14:30:58;5.80;66.10
63445;DHT22;49573;47.682;9.170;2023-02-01T14:33:45;5.80;65.80
63445;DHT22;49573;47.682;9.170;2023-02-01T14:36:45;5.80;64.80
63445;DHT22;49573;47.682;9.170;2023-02-01T14:39:36;5.80;64.00
63445;DHT22;49573;47.682;9.170;2023-02-01T14:42:26;5.80;64.40
63445;DHT22;49573;47.682;9.170;2023-02-01T14:45:48;5.80;64.50
63445;DHT22;49573;47.682;9.170;2023-02-01T14:48:46;5.80;64.50
63445;DHT22;49573;47.682;9.170;2023-02-01T14:51:33;5.80;64.60
63445;DHT22;49573;47.682;9.170;2023-02-01T14:54:20;5.80;64.30
63445;DHT22;49573;47.682;9.170;2023-02-01T14:57:14;5.80;63.70
63445;DHT22;49573;47.682;9.170;2023-02-01T15:00:08;5.80;64.00
63445;DHT22;49573;47.682;9.170;2023-02-01T15:03:19;5.80;63.40
63445;DHT22;49573;47.682;9.170;2023-02-01T15:06:19;5.80;63.40
63445;DHT22;49573;47.682;9.170;2023-02-01T15:09:09;5.80;63.50
63445;DHT22;49573;47.682;9.170;2023-02-01T15:12:01;5.80;63.90
63445;DHT22;49573;47.682;9.170;2023-02-01T15:15:05;5.80;63.60
63445;DHT22;49573;47.682;9.170;2023-02-01T15:17:55;5.80;63.80
63445;DHT22;49573;47.682;9.170;2023-02-01T15:20:42;5.80;63.90
63445;DHT22;49573;47.682;9.170;2023-02-01T15:23:29;5.70;63.90
63445;DHT22;49573;47.682;9.170;2023-02-01T15:26:24;5.70;64.20
63445;DHT22;49573;47.682;9.170;2023-02-01T15:29:13;5.70;64.30
63445;DHT22;49573;47.682;9.170;2023-02-01T15:31:59;5.70;64.90
63445;DHT22;49573;47.682;9.170;2023-02-01T15:34:48;5.70;65.50
63445;DHT22;49573;47.682;9.170;2023-02-01T15:37:34;5.70;65.90
63445;DHT22;49573;47.682;9.170;2023-02-01T15:40:21;5.70;66.10
63445;DHT22;49573;47.682;9.170;2023-02-01T15:43:10;5.60;66.00
63445;DHT22;49573;47.682;9.170;2023-02-01T15:46:00;5.60;66.00
63445;DHT22;49573;47.682;9.170;2023-02-01T15:48:49;5.60;65.90
63445;DHT22;49573;47.682;9.170;2023-02-01T15:51:36;5.60;66.00
63445;DHT22;49573;47.682;9.170;2023-02-01T15:54:27;5.50;65.40
63445;DHT22;49573;47.682;9.170;2023-02-01T15:57:19;5.50;65.50
63445;DHT22;49573;47.682;9.170;2023-02-01T16:00:08;5.50;65.90
63445;DHT22;49573;47.682;9.170;2023-02-01T16:03:25;5.50;66.40
63445;DHT22;49573;47.682;9.170;2023-02-01T16:06:26;5.50;66.40
63445;DHT22;49573;47.682;9.170;2023-02-01T16:09:13;5.50;66.70
63445;DHT22;49573;47.682;9.170;2023-02-01T16:12:01;5.50;65.90
63445;DHT22;49573;47.682;9.170;2023-02-01T16:14:47;5.40;66.10
63445;DHT22;49573;47.682;9.170;2023-02-01T16:17:33;5.40;66.20
63445;DHT22;49573;47.682;9.170;2023-02-01T16:20:21;5.40;65.40
63445;DHT22;49573;47.682;9.170;2023-02-01T16:23:08;5.40;65.40
63445;DHT22;49573;47.682;9.170;2023-02-01T16:25:54;5.40;64.60
63445;DHT22;49573;47.682;9.170;2023-02-01T16:28:40;5.40;64.70
63445;DHT22;49573;47.682;9.170;2023-02-01T16:31:28;5.40;64.50
63445;DHT22;49573;47.682;9.170;2023-02-01T16:34:15;5.40;64.10
63445;DHT22;49573;47.682;9.170;2023-02-01T16:37:11;5.40;64.10
63445;DHT22;49573;47.682;9.170;2023-02-01T16:39:58;5.40;64.50
63445;DHT22;49573;47.682;9.170;2023-02-01T16:42:46;5.40;64.00
63445;DHT22;49573;47.682;9.170;2023-02-01T16:45:33;5.40;63.90
63445;DHT22;49573;47.682;9.170;2023-02-01T16:48:22;5.40;64.30
63445;DHT22;49573;47.682;9.170;2023-02-01T16:51:11;5.40;64.00
63445;DHT22;49573;47.682;9.170;2023-02-01T16:53:59;5.40;64.10
63445;DHT22;49573;47.682;9.170;2023-02-01T16:56:45;5.40;64.10
63445;DHT22;49573;47.682;9.170;2023-02-01T16:59:32;5.40;64.20
63445;DHT22;49573;47.682;9.170;2023-02-01T17:02:19;5.40;64.30
63445;DHT22;49573;47.682;9.170;2023-02-01T17:05:06;5.40;64.60
63445;DHT22;49573;47.682;9.170;2023-02-01T17:07:52;5.40;64.60
63445;DHT22;49573;47.682;9.170;2023-02-01T17:10:40;5.30;64.90
63445;DHT22;49573;47.682;9.170;2023-02-01T17:13:26;5.40;64.80
63445;DHT22;49573;47.682;9.170;2023-02-01T17:16:25;5.30;64.90
63445;DHT22;49573;47.682;9.170;2023-02-01T17:19:14;5.40;64.70
63445;DHT22;49573;47.682;9.170;2023-02-01T17:22:02;5.30;65.00
63445;DHT22;49573;47.682;9.170;2023-02-01T17:24:48;5.30;65.30
63445;DHT22;49573;47.682;9.170;2023-02-01T17:27:35;5.30;65.30
63445;DHT22;49573;47.682;9.170;2023-02-01T17:30:23;5.30;65.30
63445;DHT22;49573;47.682;9.170;2023-02-01T17:33:18;5.30;65.50
63445;DHT22;49573;47.682;9.170;2023-02-01T17:36:06;5.30;65.10
63445;DHT22;49573;47.682;9.170;2023-02-01T17:38:52;5.30;65.10
63445;DHT22;49573;47.682;9.170;2023-02-01T17:41:38;5.30;65.20
63445;DHT22;49573;47.682;9.170;2023-02-01T17:44:25;5.30;65.40
63445;DHT22;49573;47.682;9.170;2023-02-01T17:47:11;5.30;65.40
63445;DHT22;49573;47.682;9.170;2023-02-01T17:49:57;5.30;65.00
63445;DHT22;49573;47.682;9.170;2023-02-01T17:52:43;5.30;65.20
63445;DHT22;49573;47.682;9.170;2023-02-01T17:55:33;5.30;65.00
63445;DHT22;49573;47.682;9.170;2023-02-01T17:58:20;5.30;64.90
63445;DHT22;49573;47.682;9.170;2023-02-01T18:01:10;5.30;65.00
63445;DHT22;49573;47.682;9.170;2023-02-01T18:03:57;5.30;64.80
63445;DHT22;49573;47.682;9.170;2023-02-01T18:06:43;5.30;64.90
63445;DHT22;49573;47.682;9.170;2023-02-01T18:09:30;5.30;64.80
63445;DHT22;49573;47.682;9.170;2023-02-01T18:12:19;5.30;64.70
63445;DHT22;49573;47.682;9.170;2023-02-01T18:15:15;5.30;64.50
63445;DHT22;49573;47.682;9.170;2023-02-01T18:18:03;5.30;64.50
63445;DHT22;49573;47.682;9.170;2023-02-01T18:20:49;5.30;64.70
63445;DHT22;49573;47.682;9.170;2023-02-01T18:23:36;5.30;64.80